Time;durP1;ratioP1;P1;durP2;ratioP2;P2;SDS_P1;SDS_P2;PMS_P1;PMS_P2;Temp;Humidity;BMP_temperature;BMP_pressure;BME280_temperature;BME280_humidity;BME280_pressure;Samples;Min_cycle;Max_cycle;Signal;HPM_P1;HPM_P2
2021/07/31 00:00:05;;;;;;;7.25;2.47;;;;;;;;;;4976480;28;20066;-74
2021/07/31 00:02:31;;;;;;;8.75;3.72;;;;;;;;;;4976997;28;20034;-75
2021/07/31 00:04:57;;;;;;;4.78;2.60;;;;;;;;;;4976367;28;20030;-74
2021/07/31 00:07:23;;;;;;;7.78;3.22;;;;;;;;;;4976351;28;20031;-74
2021/07/31 00:09:49;;;;;;;8.32;3.47;;;;;;;;;;4976254;28;20066;-73
2021/07/31 00:12:15;;;;;;;7.00;2.53;;;;;;;;;;4976246;28;20452;-74
2021/07/31 00:14:41;;;;;;;8.63;3.30;;;;;;;;;;4976234;28;20023;-74
2021/07/31 00:17:08;;;;;;;6.45;2.45;;;;;;;;;;4976228;28;20098;-74
2021/07/31 00:19:35;;;;;;;5.88;2.97;;;;;;;;;;4976133;28;20398;-74
2021/07/31 00:22:02;;;;;;;9.70;3.15;;;;;;;;;;4976109;28;20484;-74
2021/07/31 00:24:28;;;;;;;8.88;3.20;;;;;;;;;;4976048;28;20391;-74
2021/07/31 00:26:55;;;;;;;8.32;3.65;;;;;;;;;;4975936;28;20082;-74
2021/07/31 00:29:21;;;;;;;6.97;2.70;;;;;;;;;;4958532;28;20465;-75
2021/07/31 00:31:47;;;;;;;6.70;3.25;;;;;;;;;;4975907;28;20102;-74
2021/07/31 00:34:13;;;;;;;10.20;3.83;;;;;;;;;;4958537;28;20027;-74
2021/07/31 00:36:39;;;;;;;7.55;3.00;;;;;;;;;;4975771;28;20474;-74
2021/07/31 00:39:05;;;;;;;10.05;3.50;;;;;;;;;;4975674;28;20058;-76
2021/07/31 00:41:31;;;;;;;8.13;3.30;;;;;;;;;;4976015;28;20027;-74
2021/07/31 00:43:57;;;;;;;10.55;3.35;;;;;;;;;;4975741;28;20038;-74
2021/07/31 00:46:23;;;;;;;12.88;3.47;;;;;;;;;;4975669;28;20027;-74
2021/07/31 00:48:50;;;;;;;9.23;3.40;;;;;;;;;;4975569;28;20035;-74
2021/07/31 00:51:16;;;;;;;9.73;3.85;;;;;;;;;;4975569;28;20027;-74
2021/07/31 00:53:44;;;;;;;12.20;3.55;;;;;;;;;;4975552;28;20073;-74
2021/07/31 00:56:10;;;;;;;8.23;3.53;;;;;;;;;;4958164;28;20109;-74
2021/07/31 00:58:36;;;;;;;7.88;3.00;;;;;;;;;;4975709;28;20030;-74
2021/07/31 01:01:02;;;;;;;12.13;3.10;;;;;;;;;;4957746;28;20386;-74
2021/07/31 01:03:28;;;;;;;12.10;3.33;;;;;;;;;;4975354;28;20393;-74
2021/07/31 01:05:55;;;;;;;6.10;3.08;;;;;;;;;;4957883;28;20475;-74
2021/07/31 01:08:21;;;;;;;8.73;3.70;;;;;;;;;;4975443;28;20427;-74
2021/07/31 01:10:47;;;;;;;8.40;3.42;;;;;;;;;;4975438;28;20383;-74
2021/07/31 01:13:13;;;;;;;7.85;3.40;;;;;;;;;;4975443;28;20467;-75
2021/07/31 01:15:59;;;;;;;9.82;3.47;;;;;;;;;;4957795;28;20027;-75
2021/07/31 01:18:25;;;;;;;7.20;3.30;;;;;;;;;;4957526;28;20074;-75
2021/07/31 01:20:51;;;;;;;9.52;3.88;;;;;;;;;;4975002;28;20050;-74
2021/07/31 01:23:17;;;;;;;7.45;3.45;;;;;;;;;;4975241;28;20033;-75
2021/07/31 01:25:43;;;;;;;10.52;3.65;;;;;;;;;;4974933;28;20030;-73
2021/07/31 01:28:09;;;;;;;6.90;3.20;;;;;;;;;;4975180;28;20097;-74
2021/07/31 01:30:35;;;;;;;9.52;3.53;;;;;;;;;;4974768;28;20026;-75
2021/07/31 01:33:01;;;;;;;7.75;2.72;;;;;;;;;;4974930;28;20471;-74
2021/07/31 01:35:27;;;;;;;9.98;3.70;;;;;;;;;;4974825;28;20101;-74
2021/07/31 01:37:53;;;;;;;12.13;3.90;;;;;;;;;;4974720;28;20031;-75
2021/07/31 01:40:19;;;;;;;7.97;2.95;;;;;;;;;;4974342;28;20054;-74
2021/07/31 01:42:46;;;;;;;11.98;3.90;;;;;;;;;;4974694;28;20030;-74
2021/07/31 01:45:12;;;;;;;7.35;3.53;;;;;;;;;;4974655;28;20402;-74
2021/07/31 01:47:38;;;;;;;7.53;3.33;;;;;;;;;;4974943;28;20376;-74
2021/07/31 01:50:04;;;;;;;5.75;2.90;;;;;;;;;;4974604;28;20034;-74
2021/07/31 01:52:30;;;;;;;9.00;3.38;;;;;;;;;;4974850;28;20090;-74
2021/07/31 01:54:56;;;;;;;10.68;3.67;;;;;;;;;;4974524;28;20019;-74
2021/07/31 01:57:22;;;;;;;9.50;4.05;;;;;;;;;;4974783;28;20034;-74
2021/07/31 01:59:48;;;;;;;11.85;3.80;;;;;;;;;;4974505;28;20393;-74
2021/07/31 02:02:14;;;;;;;10.32;3.78;;;;;;;;;;4974743;28;20114;-74
2021/07/31 02:04:40;;;;;;;7.55;3.55;;;;;;;;;;4974459;28;20394;-75
2021/07/31 02:07:07;;;;;;;9.35;3.95;;;;;;;;;;4974414;28;20027;-75
2021/07/31 02:09:33;;;;;;;7.43;3.53;;;;;;;;;;4974677;28;20031;-75
2021/07/31 02:11:59;;;;;;;7.78;3.25;;;;;;;;;;4974409;28;20491;-75
2021/07/31 02:14:25;;;;;;;7.78;3.33;;;;;;;;;;4977225;28;20027;-74
2021/07/31 02:16:51;;;;;;;10.63;3.63;;;;;;;;;;4978420;28;20043;-74
2021/07/31 02:19:17;;;;;;;6.55;2.78;;;;;;;;;;4978333;28;20483;-75
2021/07/31 02:21:43;;;;;;;12.30;3.58;;;;;;;;;;4978586;28;20031;-74
2021/07/31 02:24:09;;;;;;;9.13;3.45;;;;;;;;;;4978238;28;20390;-74
2021/07/31 02:26:35;;;;;;;8.68;3.55;;;;;;;;;;4978143;28;20031;-74
2021/07/31 02:29:01;;;;;;;11.50;3.75;;;;;;;;;;4978395;28;20105;-75
2021/07/31 02:31:27;;;;;;;8.50;3.72;;;;;;;;;;4978114;28;20486;-74
2021/07/31 02:33:53;;;;;;;8.70;3.22;;;;;;;;;;4978077;28;20360;-74
2021/07/31 02:36:19;;;;;;;7.55;3.25;;;;;;;;;;4977970;28;20023;-74
2021/07/31 02:38:45;;;;;;;10.20;3.80;;;;;;;;;;4957257;28;20101;-74
2021/07/31 02:41:11;;;;;;;6.85;3.80;;;;;;;;;;4958993;28;20027;-73
2021/07/31 02:43:37;;;;;;;9.93;4.15;;;;;;;;;;4958655;28;20031;-74
2021/07/31 02:46:04;;;;;;;7.50;3.80;;;;;;;;;;4958868;28;20035;-74
2021/07/31 02:48:31;;;;;;;10.20;3.63;;;;;;;;;;4958982;28;20093;-74
2021/07/31 02:51:04;;;;;;;7.63;3.63;;;;;;;;;;4958764;28;20522;-74
2021/07/31 02:53:30;;;;;;;10.15;4.03;;;;;;;;;;4958722;28;20543;-73
2021/07/31 02:55:56;;;;;;;10.18;3.92;;;;;;;;;;4958415;28;20027;-74
2021/07/31 02:58:22;;;;;;;8.65;4.10;;;;;;;;;;4958336;28;20030;-74
2021/07/31 03:00:48;;;;;;;6.47;3.28;;;;;;;;;;4958354;28;20035;-74
2021/07/31 03:03:14;;;;;;;7.82;3.60;;;;;;;;;;4958294;28;20030;-74
2021/07/31 03:05:40;;;;;;;7.47;3.45;;;;;;;;;;4958252;28;20032;-75
2021/07/31 03:08:06;;;;;;;6.97;3.55;;;;;;;;;;4958180;28;20034;-74
2021/07/31 03:10:32;;;;;;;8.80;3.55;;;;;;;;;;4958055;28;20031;-74
2021/07/31 03:12:58;;;;;;;10.88;3.58;;;;;;;;;;4958069;28;20390;-73
2021/07/31 03:15:24;;;;;;;8.35;3.83;;;;;;;;;;4958033;28;20031;-74
2021/07/31 03:17:50;;;;;;;8.80;3.67;;;;;;;;;;4958320;28;20023;-75
2021/07/31 03:20:16;;;;;;;5.63;3.10;;;;;;;;;;4958236;28;20082;-74
2021/07/31 03:22:42;;;;;;;9.70;3.40;;;;;;;;;;4957977;28;20447;-74
2021/07/31 03:25:09;;;;;;;9.40;3.20;;;;;;;;;;4957712;28;20447;-74
2021/07/31 03:27:35;;;;;;;10.40;3.90;;;;;;;;;;4956592;29;20490;-74
2021/07/31 03:30:02;;;;;;;8.25;3.15;;;;;;;;;;4957785;28;20427;-75
2021/07/31 03:32:27;;;;;;;10.15;3.83;;;;;;;;;;4957773;28;20034;-74
2021/07/31 03:34:53;;;;;;;8.23;3.22;;;;;;;;;;4957729;28;20031;-74
2021/07/31 03:37:19;;;;;;;10.02;3.70;;;;;;;;;;4957580;28;20055;-73
2021/07/31 03:39:45;;;;;;;8.10;3.53;;;;;;;;;;4969073;28;20082;-74
2021/07/31 03:42:11;;;;;;;12.40;4.13;;;;;;;;;;4976831;28;20110;-74
2021/07/31 03:44:37;;;;;;;11.50;3.35;;;;;;;;;;4976797;28;20031;-74
2021/07/31 03:47:03;;;;;;;9.80;3.50;;;;;;;;;;4977017;28;20037;-74
2021/07/31 03:49:32;;;;;;;7.25;2.80;;;;;;;;;;4976944;28;20027;-74
2021/07/31 03:51:58;;;;;;;8.88;3.35;;;;;;;;;;4976958;28;20097;-74
2021/07/31 03:54:24;;;;;;;7.15;3.17;;;;;;;;;;4976640;28;20027;-75
2021/07/31 03:56:50;;;;;;;11.73;3.55;;;;;;;;;;4976584;28;20023;-74
2021/07/31 03:59:16;;;;;;;10.75;4.05;;;;;;;;;;4976515;28;20035;-74
2021/07/31 04:01:42;;;;;;;12.27;4.10;;;;;;;;;;4976498;28;20081;-75
2021/07/31 04:04:08;;;;;;;7.60;3.20;;;;;;;;;;4976448;28;20078;-74
2021/07/31 04:06:34;;;;;;;8.40;3.70;;;;;;;;;;4959038;28;20030;-74
2021/07/31 04:09:00;;;;;;;8.93;3.45;;;;;;;;;;4976289;28;20479;-74
2021/07/31 04:11:26;;;;;;;9.93;3.72;;;;;;;;;;4976309;28;20019;-74
2021/07/31 04:13:54;;;;;;;12.20;4.45;;;;;;;;;;4976268;28;20457;-75
2021/07/31 04:16:20;;;;;;;6.65;3.35;;;;;;;;;;4958878;28;20054;-74
2021/07/31 04:18:46;;;;;;;7.18;3.50;;;;;;;;;;4976465;28;20074;-74
2021/07/31 04:21:12;;;;;;;8.70;3.50;;;;;;;;;;4976421;28;20030;-74
2021/07/31 04:23:38;;;;;;;8.88;4.07;;;;;;;;;;4976098;28;20031;-74
2021/07/31 04:26:14;;;;;;;9.65;4.05;;;;;;;;;;4958678;28;20023;-75
2021/07/31 04:28:41;;;;;;;9.10;3.70;;;;;;;;;;4958385;28;20034;-75
2021/07/31 04:31:09;;;;;;;6.95;3.10;;;;;;;;;;4975953;28;20030;-75
2021/07/31 04:33:35;;;;;;;6.70;3.58;;;;;;;;;;4975935;28;20098;-74
2021/07/31 04:36:02;;;;;;;9.55;3.70;;;;;;;;;;4975317;28;20487;-74
2021/07/31 04:38:29;;;;;;;8.75;3.40;;;;;;;;;;4958183;28;20029;-75
2021/07/31 04:40:55;;;;;;;6.13;3.03;;;;;;;;;;4975819;28;20491;-74
2021/07/31 04:43:21;;;;;;;13.60;4.22;;;;;;;;;;4975685;28;20054;-75
2021/07/31 04:45:47;;;;;;;8.98;4.05;;;;;;;;;;4975705;28;20491;-74
2021/07/31 04:48:13;;;;;;;8.48;3.60;;;;;;;;;;4975624;28;20038;-74
2021/07/31 04:50:40;;;;;;;10.07;3.85;;;;;;;;;;4975798;28;20026;-74
2021/07/31 04:53:06;;;;;;;6.97;3.20;;;;;;;;;;4975531;28;20031;-74
2021/07/31 04:55:32;;;;;;;11.48;4.13;;;;;;;;;;4975546;28;20030;-73
2021/07/31 04:57:58;;;;;;;8.07;3.55;;;;;;;;;;4975716;28;20022;-73
2021/07/31 05:00:24;;;;;;;7.10;3.38;;;;;;;;;;4975690;28;20086;-73
2021/07/31 05:02:50;;;;;;;11.75;3.97;;;;;;;;;;4975390;28;20427;-74
2021/07/31 05:05:16;;;;;;;9.00;3.10;;;;;;;;;;4975373;28;20074;-73
2021/07/31 05:07:42;;;;;;;7.40;3.50;;;;;;;;;;4975330;28;20142;-74
2021/07/31 05:10:09;;;;;;;10.52;3.67;;;;;;;;;;4975165;28;20034;-74
2021/07/31 05:12:35;;;;;;;7.00;3.20;;;;;;;;;;4975225;28;20034;-74
2021/07/31 05:15:01;;;;;;;7.38;3.58;;;;;;;;;;4975182;28;20019;-75
2021/07/31 05:17:27;;;;;;;9.82;3.28;;;;;;;;;;4975110;28;20389;-74
2021/07/31 05:19:53;;;;;;;10.60;3.33;;;;;;;;;;4975111;28;20026;-74
2021/07/31 05:22:19;;;;;;;9.32;3.45;;;;;;;;;;4975041;28;20049;-74
2021/07/31 05:24:48;;;;;;;10.57;4.03;;;;;;;;;;4974992;28;20031;-74
2021/07/31 05:27:14;;;;;;;9.43;3.30;;;;;;;;;;4975496;28;20027;-75
2021/07/31 05:29:40;;;;;;;5.93;3.30;;;;;;;;;;4975113;28;20070;-74
2021/07/31 05:32:07;;;;;;;7.90;3.25;;;;;;;;;;4974867;28;20475;-75
2021/07/31 05:34:33;;;;;;;9.40;3.13;;;;;;;;;;4975391;28;20018;-74
2021/07/31 05:36:59;;;;;;;7.97;3.03;;;;;;;;;;4974922;28;20030;-74
2021/07/31 05:39:25;;;;;;;6.80;3.47;;;;;;;;;;4974578;28;20534;-74
2021/07/31 05:41:51;;;;;;;9.70;3.60;;;;;;;;;;4974994;28;20034;-74
2021/07/31 05:44:17;;;;;;;8.13;3.30;;;;;;;;;;4975017;28;20073;-74
2021/07/31 05:46:43;;;;;;;9.95;3.50;;;;;;;;;;4974684;28;20097;-74
2021/07/31 05:49:09;;;;;;;8.13;2.97;;;;;;;;;;4973969;28;20137;-75
2021/07/31 05:51:35;;;;;;;9.00;3.63;;;;;;;;;;4974594;28;20488;-74
2021/07/31 05:54:01;;;;;;;8.63;3.53;;;;;;;;;;4974590;28;20019;-75
2021/07/31 05:56:27;;;;;;;7.72;3.08;;;;;;;;;;4974836;28;20031;-74
2021/07/31 05:58:53;;;;;;;8.88;3.20;;;;;;;;;;4957225;28;20086;-73
2021/07/31 06:01:19;;;;;;;8.60;3.33;;;;;;;;;;4974766;28;20119;-74
2021/07/31 06:03:45;;;;;;;8.60;3.25;;;;;;;;;;4974739;28;20041;-73
2021/07/31 06:06:11;;;;;;;10.25;3.28;;;;;;;;;;4974469;28;20097;-73
2021/07/31 06:08:37;;;;;;;8.40;3.20;;;;;;;;;;4957015;28;20065;-74
2021/07/31 06:11:04;;;;;;;7.70;3.22;;;;;;;;;;4974402;28;20111;-75
2021/07/31 06:13:30;;;;;;;10.55;3.30;;;;;;;;;;4957141;28;20505;-75
2021/07/31 06:15:56;;;;;;;9.95;2.80;;;;;;;;;;4974686;28;20387;-75
2021/07/31 06:18:22;;;;;;;10.60;3.30;;;;;;;;;;4974375;28;20443;-75
2021/07/31 06:20:48;;;;;;;4.75;2.50;;;;;;;;;;4974388;28;20109;-75
2021/07/31 06:23:14;;;;;;;8.68;3.03;;;;;;;;;;4974912;28;20060;-75
2021/07/31 06:25:40;;;;;;;6.13;2.42;;;;;;;;;;4956986;28;20063;-75
2021/07/31 06:28:06;;;;;;;9.40;3.20;;;;;;;;;;4974302;28;20023;-74
2021/07/31 06:30:32;;;;;;;12.88;3.42;;;;;;;;;;4974480;28;20081;-75
2021/07/31 06:32:58;;;;;;;8.52;2.90;;;;;;;;;;4974249;28;20022;-74
2021/07/31 06:35:24;;;;;;;8.95;3.00;;;;;;;;;;4974512;28;20038;-74
2021/07/31 06:37:50;;;;;;;10.90;3.22;;;;;;;;;;4974176;28;20390;-74
2021/07/31 06:40:16;;;;;;;7.53;3.13;;;;;;;;;;4973813;28;20055;-74
2021/07/31 06:42:42;;;;;;;8.57;3.15;;;;;;;;;;4974135;28;20390;-74
2021/07/31 06:45:08;;;;;;;5.50;2.53;;;;;;;;;;4974128;28;20114;-74
2021/07/31 06:47:34;;;;;;;7.00;2.97;;;;;;;;;;4956827;28;20022;-75
2021/07/31 06:50:00;;;;;;;7.43;2.55;;;;;;;;;;4974060;28;20031;-74
2021/07/31 06:52:26;;;;;;;6.45;2.83;;;;;;;;;;4956753;28;20069;-74
2021/07/31 06:54:52;;;;;;;8.38;2.92;;;;;;;;;;4974033;28;20476;-74
2021/07/31 06:57:18;;;;;;;10.55;3.15;;;;;;;;;;4974269;28;20097;-74
2021/07/31 06:59:44;;;;;;;6.60;2.47;;;;;;;;;;4975008;28;20114;-75
2021/07/31 07:02:10;;;;;;;8.50;2.80;;;;;;;;;;4977610;28;20023;-74
2021/07/31 07:04:36;;;;;;;10.02;3.35;;;;;;;;;;4977800;28;20085;-74
2021/07/31 07:07:02;;;;;;;10.63;2.90;;;;;;;;;;4977492;28;20487;-74
2021/07/31 07:09:28;;;;;;;7.97;2.83;;;;;;;;;;4977687;28;20031;-74
2021/07/31 07:11:56;;;;;;;7.65;3.17;;;;;;;;;;4977414;28;20050;-74
2021/07/31 07:14:22;;;;;;;10.75;3.17;;;;;;;;;;4977377;28;20023;-74
2021/07/31 07:16:48;;;;;;;7.65;3.05;;;;;;;;;;4977611;28;20027;-73
2021/07/31 07:19:14;;;;;;;5.60;2.58;;;;;;;;;;4959961;28;20483;-74
2021/07/31 07:21:40;;;;;;;6.10;2.42;;;;;;;;;;4959902;28;20066;-74
2021/07/31 07:24:06;;;;;;;5.35;2.88;;;;;;;;;;4959804;28;20034;-74
2021/07/31 07:26:32;;;;;;;7.47;2.65;;;;;;;;;;4977443;28;20037;-75
2021/07/31 07:28:58;;;;;;;9.32;3.63;;;;;;;;;;4976997;28;20391;-74
2021/07/31 07:31:24;;;;;;;4.80;2.58;;;;;;;;;;4977328;28;20023;-74
2021/07/31 07:33:50;;;;;;;6.72;2.75;;;;;;;;;;4977308;28;20026;-74
2021/07/31 07:36:17;;;;;;;5.70;2.58;;;;;;;;;;4976921;28;20070;-74
2021/07/31 07:38:44;;;;;;;10.98;3.10;;;;;;;;;;4976645;28;20054;-74
2021/07/31 07:41:10;;;;;;;6.00;2.78;;;;;;;;;;4977231;28;20102;-74
2021/07/31 07:43:37;;;;;;;4.85;2.70;;;;;;;;;;4976826;28;20027;-74
2021/07/31 07:46:03;;;;;;;7.82;2.83;;;;;;;;;;4977092;28;20078;-74
2021/07/31 07:48:29;;;;;;;8.45;2.92;;;;;;;;;;4977004;28;20533;-73
2021/07/31 07:50:55;;;;;;;9.75;2.83;;;;;;;;;;4976626;28;20085;-74
2021/07/31 07:53:21;;;;;;;9.55;3.10;;;;;;;;;;4976683;28;20027;-74
2021/07/31 07:55:48;;;;;;;6.72;2.72;;;;;;;;;;4976869;28;20077;-74
2021/07/31 07:58:14;;;;;;;6.82;2.65;;;;;;;;;;4976611;28;20027;-74
2021/07/31 08:00:43;;;;;;;6.70;2.80;;;;;;;;;;4976532;28;20398;-74
2021/07/31 08:03:09;;;;;;;6.43;2.60;;;;;;;;;;4977010;28;20027;-74
2021/07/31 08:05:38;;;;;;;8.38;3.08;;;;;;;;;;4959149;28;20031;-75
2021/07/31 08:08:04;;;;;;;5.53;2.40;;;;;;;;;;4976512;28;20049;-74
2021/07/31 08:10:31;;;;;;;7.93;2.58;;;;;;;;;;4976320;28;20054;-74
2021/07/31 08:12:57;;;;;;;5.57;2.70;;;;;;;;;;4975714;28;20475;-75
2021/07/31 08:15:23;;;;;;;8.02;2.92;;;;;;;;;;4976286;28;20081;-75
2021/07/31 08:17:49;;;;;;;6.72;2.33;;;;;;;;;;4976770;28;20074;-75
2021/07/31 08:20:15;;;;;;;8.85;3.08;;;;;;;;;;4976188;28;20038;-74
2021/07/31 08:22:41;;;;;;;8.82;2.38;;;;;;;;;;4976159;28;20035;-75
2021/07/31 08:25:07;;;;;;;9.30;2.47;;;;;;;;;;4976094;28;20425;-74
2021/07/31 08:27:33;;;;;;;8.18;2.45;;;;;;;;;;4976040;28;20035;-74
2021/07/31 08:29:59;;;;;;;7.85;2.30;;;;;;;;;;4975947;28;20097;-73
2021/07/31 08:32:26;;;;;;;7.82;2.40;;;;;;;;;;4975927;28;20470;-74
2021/07/31 08:34:52;;;;;;;4.65;2.25;;;;;;;;;;4958565;28;20479;-74
2021/07/31 08:37:18;;;;;;;4.40;2.20;;;;;;;;;;4975805;28;20027;-75
2021/07/31 08:39:44;;;;;;;7.53;2.10;;;;;;;;;;4975635;28;20469;-74
2021/07/31 08:42:12;;;;;;;5.68;2.22;;;;;;;;;;4976026;28;20037;-75
2021/07/31 08:44:38;;;;;;;4.93;2.50;;;;;;;;;;4976008;28;20074;-74
2021/07/31 08:47:05;;;;;;;3.88;1.90;;;;;;;;;;4976215;28;20187;-75
2021/07/31 08:49:35;;;;;;;3.72;2.13;;;;;;;;;;4975542;28;20074;-74
2021/07/31 08:52:02;;;;;;;5.47;2.17;;;;;;;;;;4975567;28;20479;-74
2021/07/31 08:54:28;;;;;;;6.43;2.25;;;;;;;;;;4975851;28;20030;-74
2021/07/31 08:56:54;;;;;;;6.32;3.33;;;;;;;;;;4957941;28;20458;-75
2021/07/31 08:59:27;;;;;;;6.32;2.60;;;;;;;;;;4975440;28;20027;-74
2021/07/31 09:01:53;;;;;;;3.70;2.15;;;;;;;;;;4975705;28;20432;-74
2021/07/31 09:04:20;;;;;;;5.68;2.50;;;;;;;;;;4975387;28;20502;-74
2021/07/31 09:06:46;;;;;;;6.55;2.78;;;;;;;;;;4975298;28;20026;-74
2021/07/31 09:09:13;;;;;;;5.03;2.20;;;;;;;;;;4975481;28;20023;-74
2021/07/31 09:12:14;;;;;;;4.43;1.90;;;;;;;;;;4975499;28;20023;-74
2021/07/31 09:14:47;;;;;;;4.65;2.17;;;;;;;;;;4897321;29;20100;-74
2021/07/31 09:17:26;;;;;;;3.95;1.90;;;;;;;;;;4962913;28;20125;-74
2021/07/31 09:19:53;;;;;;;4.35;2.17;;;;;;;;;;4975361;28;20034;-74
2021/07/31 09:22:19;;;;;;;7.00;2.35;;;;;;;;;;4974880;28;20035;-74
2021/07/31 09:25:05;;;;;;;5.20;1.65;;;;;;;;;;4975018;28;20446;-74
2021/07/31 09:27:31;;;;;;;5.22;2.22;;;;;;;;;;4975161;28;20051;-75
2021/07/31 09:30:00;;;;;;;4.53;1.92;;;;;;;;;;4957532;28;20499;-74
2021/07/31 09:32:36;;;;;;;4.60;1.80;;;;;;;;;;4974924;28;20034;-74
2021/07/31 09:35:01;;;;;;;5.57;2.22;;;;;;;;;;4957308;28;20023;-74
2021/07/31 09:37:28;;;;;;;4.40;1.90;;;;;;;;;;4975038;28;20037;-74
2021/07/31 09:39:58;;;;;;;4.30;1.90;;;;;;;;;;4974642;28;20046;-74
2021/07/31 09:42:36;;;;;;;3.72;1.63;;;;;;;;;;4974797;28;20069;-74
2021/07/31 09:45:06;;;;;;;5.93;2.08;;;;;;;;;;4974734;28;20035;-74
2021/07/31 09:47:33;;;;;;;3.50;1.48;;;;;;;;;;4974702;28;20387;-75
2021/07/31 09:49:59;;;;;;;3.42;1.40;;;;;;;;;;4974583;28;20501;-75
2021/07/31 09:52:26;;;;;;;2.97;1.65;;;;;;;;;;4974617;28;20026;-75
2021/07/31 09:54:53;;;;;;;2.55;1.20;;;;;;;;;;4974605;28;20199;-75
2021/07/31 09:57:20;;;;;;;1.98;1.23;;;;;;;;;;4974847;28;20023;-75
2021/07/31 09:59:46;;;;;;;2.25;0.93;;;;;;;;;;4974813;28;20110;-74
2021/07/31 10:02:20;;;;;;;3.38;1.40;;;;;;;;;;4974583;28;20031;-74
2021/07/31 10:04:47;;;;;;;4.63;1.40;;;;;;;;;;4975078;28;20446;-73
2021/07/31 10:07:14;;;;;;;2.17;1.10;;;;;;;;;;4974766;28;20545;-74
2021/07/31 10:09:41;;;;;;;2.85;1.38;;;;;;;;;;4974702;28;20105;-74
2021/07/31 10:12:11;;;;;;;2.25;1.02;;;;;;;;;;4974510;28;20022;-74
2021/07/31 10:14:37;;;;;;;;;;;;;;;;;;4975398;28;20486;-74
2021/07/31 10:17:03;;;;;;;2.75;1.10;;;;;;;;;;4974353;28;19956;-73
2021/07/31 10:19:37;;;;;;;2.88;1.10;;;;;;;;;;4974393;28;20027;-74
2021/07/31 10:22:03;;;;;;;3.88;2.03;;;;;;;;;;4974666;28;20137;-74
2021/07/31 10:24:49;;;;;;;2.78;1.20;;;;;;;;;;4974330;28;20027;-74
2021/07/31 10:27:15;;;;;;;2.50;1.25;;;;;;;;;;4974108;28;20034;-74
2021/07/31 10:29:44;;;;;;;4.35;1.60;;;;;;;;;;4974452;28;20035;-74
2021/07/31 10:32:20;;;;;;;3.53;1.13;;;;;;;;;;4974824;28;20023;-73
2021/07/31 10:34:49;;;;;;;2.50;1.30;;;;;;;;;;4975344;28;20106;-73
2021/07/31 10:37:31;;;;;;;4.13;1.40;;;;;;;;;;4978026;28;20030;-73
2021/07/31 10:40:10;;;;;;;2.65;1.15;;;;;;;;;;4977798;28;20138;-73
2021/07/31 10:42:48;;;;;;;3.37;1.30;;;;;;;;;;4978284;28;20066;-74
2021/07/31 10:45:17;;;;;;;1.55;1.13;;;;;;;;;;4978498;28;20258;-73
2021/07/31 10:47:44;;;;;;;2.40;1.00;;;;;;;;;;4978222;28;20070;-74
2021/07/31 10:50:23;;;;;;;1.42;0.93;;;;;;;;;;4978040;28;20498;-74
2021/07/31 10:52:56;;;;;;;1.45;1.10;;;;;;;;;;4977849;28;20027;-74
2021/07/31 10:55:25;;;;;;;1.85;1.17;;;;;;;;;;4978061;28;20034;-74
2021/07/31 10:57:54;;;;;;;4.57;1.35;;;;;;;;;;4978499;28;20065;-74
2021/07/31 11:00:24;;;;;;;2.30;1.10;;;;;;;;;;4977668;28;20030;-74
2021/07/31 11:02:50;;;;;;;3.05;1.33;;;;;;;;;;4977610;28;20027;-74
2021/07/31 11:05:17;;;;;;;3.88;1.13;;;;;;;;;;4977561;28;20030;-73
2021/07/31 11:07:58;;;;;;;3.30;1.30;;;;;;;;;;4977504;28;20027;-73
2021/07/31 11:10:30;;;;;;;1.20;1.00;;;;;;;;;;4977676;28;20390;-74
2021/07/31 11:12:56;;;;;;;2.45;1.00;;;;;;;;;;4977407;28;20496;-74
2021/07/31 11:15:23;;;;;;;0.88;0.88;;;;;;;;;;4977413;28;20027;-74
2021/07/31 11:17:55;;;;;;;1.73;1.02;;;;;;;;;;4977864;28;20030;-74
2021/07/31 11:20:25;;;;;;;1.13;1.00;;;;;;;;;;4977279;28;20086;-74
2021/07/31 11:22:53;;;;;;;2.78;1.13;;;;;;;;;;4977554;28;20431;-74
2021/07/31 11:25:20;;;;;;;1.73;1.15;;;;;;;;;;4977209;28;20027;-74
2021/07/31 11:28:08;;;;;;;1.17;1.08;;;;;;;;;;4977476;28;20053;-74
2021/07/31 11:30:54;;;;;;;2.35;1.10;;;;;;;;;;4977645;28;20026;-74
2021/07/31 11:33:21;;;;;;;2.17;0.90;;;;;;;;;;4977409;28;20356;-74
2021/07/31 11:35:49;;;;;;;1.58;1.10;;;;;;;;;;4977283;28;20443;-74
2021/07/31 11:38:34;;;;;;;2.28;1.00;;;;;;;;;;4976933;28;20518;-74
2021/07/31 11:41:02;;;;;;;2.97;0.95;;;;;;;;;;4977260;28;20038;-74
2021/07/31 11:43:28;;;;;;;2.50;0.82;;;;;;;;;;4977197;28;20034;-74
2021/07/31 11:45:54;;;;;;;2.13;1.02;;;;;;;;;;4976802;28;20034;-74
2021/07/31 11:48:21;;;;;;;0.95;0.88;;;;;;;;;;4959453;28;20031;-75
2021/07/31 11:51:00;;;;;;;1.15;1.00;;;;;;;;;;4977050;28;20023;-74
2021/07/31 11:53:26;;;;;;;3.97;1.20;;;;;;;;;;4976792;28;20106;-74
2021/07/31 11:55:52;;;;;;;2.13;0.85;;;;;;;;;;4976709;28;20057;-74
2021/07/31 11:58:18;;;;;;;1.48;0.90;;;;;;;;;;4976916;28;20073;-74
2021/07/31 12:00:44;;;;;;;2.88;1.13;;;;;;;;;;4976869;28;20035;-73
2021/07/31 12:03:29;;;;;;;2.13;0.80;;;;;;;;;;4976816;28;20438;-73
2021/07/31 12:05:55;;;;;;;1.20;0.90;;;;;;;;;;4976535;28;20117;-74
2021/07/31 12:08:21;;;;;;;2.40;0.95;;;;;;;;;;4976457;28;20027;-74
2021/07/31 12:10:48;;;;;;;1.08;0.82;;;;;;;;;;4976603;28;20037;-74
2021/07/31 12:13:14;;;;;;;2.35;1.10;;;;;;;;;;4976364;28;20443;-73
2021/07/31 12:15:43;;;;;;;1.95;1.20;;;;;;;;;;4976325;28;20118;-73
2021/07/31 12:18:09;;;;;;;1.10;0.90;;;;;;;;;;4976320;28;20019;-74
2021/07/31 12:20:36;;;;;;;0.80;0.80;;;;;;;;;;4976241;28;20114;-73
2021/07/31 12:23:03;;;;;;;1.95;0.80;;;;;;;;;;4976226;28;20038;-75
2021/07/31 12:25:30;;;;;;;3.90;1.23;;;;;;;;;;4958759;28;20486;-74
2021/07/31 12:28:15;;;;;;;2.67;1.20;;;;;;;;;;4976340;28;20077;-75
2021/07/31 12:30:42;;;;;;;3.00;1.40;;;;;;;;;;4958446;28;20062;-75
2021/07/31 12:33:08;;;;;;;2.85;1.60;;;;;;;;;;4975969;28;20530;-74
2021/07/31 12:35:40;;;;;;;2.35;1.10;;;;;;;;;;4975942;28;20102;-73
2021/07/31 12:38:06;;;;;;;2.20;1.17;;;;;;;;;;4975848;28;20102;-73
2021/07/31 12:40:32;;;;;;;2.58;1.25;;;;;;;;;;4975456;28;20534;-74
2021/07/31 12:42:58;;;;;;;4.22;1.40;;;;;;;;;;4975813;28;20038;-74
2021/07/31 12:45:28;;;;;;;2.20;1.20;;;;;;;;;;4958383;28;20034;-74
2021/07/31 12:47:55;;;;;;;2.13;1.23;;;;;;;;;;4975752;28;20026;-73
2021/07/31 12:50:21;;;;;;;2.42;1.15;;;;;;;;;;4975570;28;20027;-75
2021/07/31 12:52:47;;;;;;;4.05;1.55;;;;;;;;;;4975858;28;20023;-73
2021/07/31 12:55:13;;;;;;;2.40;1.23;;;;;;;;;;4975824;28;20019;-74
2021/07/31 12:57:39;;;;;;;1.55;1.25;;;;;;;;;;4975343;28;20110;-73
2021/07/31 13:00:06;;;;;;;2.53;1.17;;;;;;;;;;4975469;28;20034;-74
2021/07/31 13:02:32;;;;;;;3.17;1.25;;;;;;;;;;4976022;28;20497;-74
2021/07/31 13:04:58;;;;;;;2.22;1.10;;;;;;;;;;4975350;28;20102;-74
2021/07/31 13:07:24;;;;;;;2.05;1.27;;;;;;;;;;4975591;28;20031;-74
2021/07/31 13:09:50;;;;;;;2.58;1.00;;;;;;;;;;4975211;28;20383;-74
2021/07/31 13:12:16;;;;;;;2.20;1.10;;;;;;;;;;4975257;28;20038;-74
2021/07/31 13:14:42;;;;;;;1.08;0.90;;;;;;;;;;4975502;28;20034;-74
2021/07/31 13:17:08;;;;;;;2.25;1.55;;;;;;;;;;4975452;28;20102;-74
2021/07/31 13:19:34;;;;;;;1.20;1.10;;;;;;;;;;4975410;28;20055;-74
2021/07/31 13:22:00;;;;;;;1.63;0.90;;;;;;;;;;4975360;28;20031;-74
2021/07/31 13:24:26;;;;;;;1.38;0.80;;;;;;;;;;4975311;28;20497;-74
2021/07/31 13:26:52;;;;;;;1.85;0.90;;;;;;;;;;4975315;28;20033;-74
2021/07/31 13:29:18;;;;;;;3.25;1.02;;;;;;;;;;4974862;28;20027;-75
2021/07/31 13:31:46;;;;;;;0.80;0.80;;;;;;;;;;4957602;28;20031;-74
2021/07/31 13:34:15;;;;;;;0.70;0.70;;;;;;;;;;4975185;28;20030;-75
2021/07/31 13:36:42;;;;;;;1.02;0.93;;;;;;;;;;4974804;28;20471;-74
2021/07/31 13:39:10;;;;;;;1.08;0.98;;;;;;;;;;4974850;28;20047;-75
2021/07/31 13:41:36;;;;;;;1.88;1.20;;;;;;;;;;4957471;28;20058;-74
2021/07/31 13:44:13;;;;;;;2.80;1.50;;;;;;;;;;4975069;28;20054;-74
2021/07/31 13:46:39;;;;;;;3.45;1.40;;;;;;;;;;4974782;28;20494;-73
2021/07/31 13:49:05;;;;;;;3.70;1.60;;;;;;;;;;4974629;28;20031;-74
2021/07/31 13:51:31;;;;;;;2.75;1.30;;;;;;;;;;4974956;28;20082;-74
2021/07/31 13:53:57;;;;;;;3.50;1.15;;;;;;;;;;4974646;28;20027;-74
2021/07/31 13:56:24;;;;;;;3.97;1.30;;;;;;;;;;4974902;28;20026;-74
2021/07/31 13:58:50;;;;;;;2.25;1.20;;;;;;;;;;4974595;28;20022;-74
2021/07/31 14:01:19;;;;;;;1.65;1.25;;;;;;;;;;4975079;28;20109;-74
2021/07/31 14:03:45;;;;;;;2.58;1.35;;;;;;;;;;4974919;28;20382;-75
2021/07/31 14:06:11;;;;;;;4.15;1.50;;;;;;;;;;4974489;28;20038;-74
2021/07/31 14:08:37;;;;;;;2.65;1.20;;;;;;;;;;4974098;28;20019;-74
2021/07/31 14:11:03;;;;;;;2.03;1.02;;;;;;;;;;4973979;28;20038;-74
2021/07/31 14:13:29;;;;;;;1.58;0.95;;;;;;;;;;4974434;28;20042;-75
2021/07/31 14:15:55;;;;;;;2.25;0.90;;;;;;;;;;4974717;28;20467;-74
2021/07/31 14:18:21;;;;;;;1.85;0.82;;;;;;;;;;4974449;28;20434;-74
2021/07/31 14:20:47;;;;;;;1.55;1.02;;;;;;;;;;4974636;28;20031;-74
2021/07/31 14:23:14;;;;;;;3.42;0.98;;;;;;;;;;4974624;28;20498;-74
2021/07/31 14:25:40;;;;;;;2.75;1.10;;;;;;;;;;4974349;28;20061;-74
2021/07/31 14:28:06;;;;;;;2.08;1.20;;;;;;;;;;4974292;28;20545;-74
2021/07/31 14:30:33;;;;;;;2.70;1.20;;;;;;;;;;4974262;28;20027;-74
2021/07/31 14:32:58;;;;;;;4.55;1.38;;;;;;;;;;4974258;28;20107;-73
2021/07/31 14:35:24;;;;;;;2.88;1.60;;;;;;;;;;4974214;28;20101;-74
2021/07/31 14:37:51;;;;;;;6.57;1.80;;;;;;;;;;4974143;28;20019;-74
2021/07/31 14:40:16;;;;;;;5.93;2.25;;;;;;;;;;4973994;28;20058;-74